Time;durP1;ratioP1;P1;durP2;ratioP2;P2;SDS_P1;SDS_P2;PMS_P1;PMS_P2;Temp;Humidity;BMP_temperature;BMP_pressure;BME280_temperature;BME280_humidity;BME280_pressure;Samples;Min_cycle;Max_cycle;Signal;HPM_P1;HPM_P2
2022/10/13 00:00:15;;;;;;;11.45;6.82;;;;;;;10.99;47.14;101651.22;5071236;28;20036;-79
2022/10/13 00:02:43;;;;;;;10.65;6.82;;;;;;;10.98;46.76;101644.00;5075455;28;20509;-80
2022/10/13 00:05:12;;;;;;;9.98;6.60;;;;;;;11.01;46.86;101645.63;5071774;28;20556;-79
2022/10/13 00:07:40;;;;;;;9.68;6.28;;;;;;;10.99;46.65;101643.00;5067889;28;20068;-79
2022/10/13 00:10:08;;;;;;;10.07;6.45;;;;;;;10.99;46.87;101645.75;5082032;28;20044;-79
2022/10/13 00:12:37;;;;;;;9.27;6.68;;;;;;;10.99;47.06;101639.41;5055312;28;20159;-80
2022/10/13 00:15:09;;;;;;;9.27;7.03;;;;;;;11.01;47.07;101645.63;5069882;28;20487;-79
2022/10/13 00:17:37;;;;;;;10.48;6.90;;;;;;;11.01;46.94;101636.53;5073450;28;20063;-78
2022/10/13 00:20:06;;;;;;;11.05;7.40;;;;;;;11.02;47.02;101638.28;5053393;28;20503;-79
2022/10/13 00:22:35;;;;;;;10.63;6.68;;;;;;;11.01;46.94;101631.94;5057851;28;20044;-78
2022/10/13 00:25:04;;;;;;;10.45;7.47;;;;;;;10.99;47.33;101634.78;5054918;28;20449;-80
2022/10/13 00:27:32;;;;;;;10.70;7.30;;;;;;;10.98;47.11;101632.16;5057119;28;20059;-79
2022/10/13 00:30:00;;;;;;;8.60;6.28;;;;;;;10.97;47.33;101628.59;5061316;28;20037;-79
2022/10/13 00:32:27;;;;;;;8.73;6.60;;;;;;;10.98;47.25;101626.69;5060163;28;20060;-80
2022/10/13 00:34:56;;;;;;;8.80;6.53;;;;;;;10.97;46.83;101631.31;5077330;28;20283;-80
2022/10/13 00:37:24;;;;;;;9.90;6.55;;;;;;;10.96;47.07;101635.06;5056701;28;20503;-80
2022/10/13 00:39:53;;;;;;;11.13;6.82;;;;;;;10.98;47.11;101632.16;5072491;28;20106;-79
2022/10/13 00:42:25;;;;;;;10.25;6.72;;;;;;;10.95;47.13;101624.22;5061514;28;20060;-79
2022/10/13 00:45:05;;;;;;;10.90;6.95;;;;;;;10.98;48.02;101626.69;5078093;28;20032;-79
2022/10/13 00:47:39;;;;;;;10.65;6.75;;;;;;;10.95;47.54;101619.59;5056015;28;20048;-79
2022/10/13 00:50:11;;;;;;;9.30;6.32;;;;;;;10.92;47.63;101617.09;5052650;28;20542;-79
2022/10/13 00:52:41;;;;;;;10.80;7.22;;;;;;;10.93;47.27;101620.72;5075626;28;20032;-79
2022/10/13 00:55:16;;;;;;;11.43;6.75;;;;;;;10.94;47.98;101614.25;5054753;28;20127;-78
2022/10/13 00:57:46;;;;;;;11.68;6.50;;;;;;;10.91;47.51;101617.19;5080093;28;20568;-79
2022/10/13 01:00:15;;;;;;;9.95;6.60;;;;;;;10.89;47.55;101619.22;5073079;28;20568;-79
2022/10/13 01:02:42;;;;;;;10.60;6.82;;;;;;;10.87;47.64;101608.38;5068064;28;20040;-79
2022/10/13 01:05:10;;;;;;;10.35;6.10;;;;;;;10.87;47.76;101611.09;5057019;28;20502;-79
2022/10/13 01:07:38;;;;;;;9.13;6.43;;;;;;;10.86;47.75;101611.22;5071371;28;20060;-79
2022/10/13 01:10:07;;;;;;;10.05;6.82;;;;;;;10.87;47.72;101607.50;5074797;28;20075;-79
2022/10/13 01:12:47;;;;;;;10.07;6.25;;;;;;;10.89;48.42;101602.78;5065991;28;20047;-78
2022/10/13 01:15:25;;;;;;;9.45;6.57;;;;;;;10.86;48.08;101598.41;5069293;28;20041;-79
2022/10/13 01:18:02;;;;;;;10.40;6.85;;;;;;;10.87;48.42;101588.31;5056118;28;20086;-80
2022/10/13 01:20:50;;;;;;;9.18;6.82;;;;;;;10.86;48.92;101584.72;5058584;28;20097;-79
2022/10/13 01:23:30;;;;;;;11.07;6.70;;;;;;;10.85;48.63;101593.03;5082056;28;20055;-80
2022/10/13 01:26:23;;;;;;;10.50;7.10;;;;;;;10.84;49.10;101588.56;5051170;28;20037;-79
2022/10/13 01:29:11;;;;;;;9.52;5.97;;;;;;;10.82;48.95;101594.13;5061338;28;20049;-81
2022/10/13 01:31:48;;;;;;;8.35;5.90;;;;;;;10.82;48.46;101580.44;5051953;28;20127;-79
2022/10/13 01:34:23;;;;;;;9.35;6.80;;;;;;;10.83;48.26;101578.59;5067814;28;20050;-81
2022/10/13 01:36:58;;;;;;;9.32;6.50;;;;;;;10.84;48.34;101577.59;5070826;28;20056;-80
2022/10/13 01:39:35;;;;;;;10.45;6.22;;;;;;;10.84;49.32;101574.84;5083303;28;20035;-80
2022/10/13 01:42:12;;;;;;;9.45;6.82;;;;;;;10.84;48.58;101575.72;5075101;28;20064;-79
2022/10/13 01:44:47;;;;;;;9.95;6.05;;;;;;;10.85;48.78;101579.34;5082172;28;20047;-80
2022/10/13 01:47:18;;;;;;;10.05;5.88;;;;;;;10.85;48.29;101571.13;5068714;28;20049;-81
2022/10/13 01:49:48;;;;;;;10.73;6.70;;;;;;;10.84;48.16;101574.84;5065222;28;20044;-79
2022/10/13 01:52:19;;;;;;;9.60;6.20;;;;;;;10.87;48.17;101574.63;5058799;28;20040;-79
2022/10/13 01:54:48;;;;;;;10.35;6.97;;;;;;;10.87;48.03;101574.63;5079247;28;20047;-81
2022/10/13 01:57:33;;;;;;;10.00;6.20;;;;;;;10.89;48.97;101578.13;5052541;28;20079;-80
2022/10/13 02:00:05;;;;;;;10.90;6.22;;;;;;;10.88;48.25;101580.00;5074026;28;20071;-80
2022/10/13 02:02:47;;;;;;;10.23;6.15;;;;;;;10.91;49.24;101573.38;5069056;28;20093;-80
2022/10/13 02:05:25;;;;;;;10.27;6.68;;;;;;;10.93;48.72;101568.66;5086009;28;20051;-79
2022/10/13 02:07:58;;;;;;;9.48;6.60;;;;;;;10.92;48.82;101556.84;5077757;28;20049;-79
2022/10/13 02:10:32;;;;;;;10.07;6.32;;;;;;;10.93;48.34;101563.19;5073204;28;20411;-81
2022/10/13 02:13:02;;;;;;;9.98;6.38;;;;;;;10.93;48.09;101557.72;5045685;28;20110;-78
2022/10/13 02:15:35;;;;;;;10.65;6.53;;;;;;;10.94;48.83;101556.72;5050216;28;20060;-80
2022/10/13 02:18:08;;;;;;;10.05;6.88;;;;;;;10.94;48.76;101557.59;5066194;28;20075;-79
2022/10/13 02:20:36;;;;;;;9.40;5.82;;;;;;;10.93;48.67;101554.97;5077252;28;20054;-80
2022/10/13 02:23:10;;;;;;;11.02;6.18;;;;;;;10.96;48.77;101557.50;5055522;28;20064;-79
2022/10/13 02:25:39;;;;;;;9.38;6.82;;;;;;;10.94;48.62;101560.34;5066834;28;20044;-79
2022/10/13 02:28:07;;;;;;;11.90;7.18;;;;;;;10.96;48.70;101552.88;5070441;28;20105;-81
2022/10/13 02:30:43;;;;;;;11.57;6.70;;;;;;;10.96;48.56;101555.63;5066166;28;20048;-79
2022/10/13 02:33:13;;;;;;;11.10;6.35;;;;;;;10.98;48.41;101556.34;5051821;28;20051;-79
2022/10/13 02:35:41;;;;;;;10.57;6.75;;;;;;;10.98;48.64;101559.09;5051769;28;20503;-79
2022/10/13 02:38:10;;;;;;;10.10;7.03;;;;;;;11.01;48.81;101557.13;5083127;28;20051;-79
2022/10/13 02:40:38;;;;;;;9.57;6.30;;;;;;;11.01;48.71;101557.13;5078092;22;20106;-71
2022/10/13 02:43:06;;;;;;;11.02;6.90;;;;;;;11.01;48.53;101552.50;5065938;28;20056;-72
2022/10/13 02:45:34;;;;;;;11.50;6.80;;;;;;;11.02;48.50;101551.53;5055748;28;20404;-72
2022/10/13 02:48:02;;;;;;;10.40;7.25;;;;;;;11.02;48.76;101557.00;5066183;28;20123;-72
2022/10/13 02:50:31;;;;;;;9.30;6.15;;;;;;;11.03;48.46;101558.75;5062711;28;20084;-72
2022/10/13 02:52:59;;;;;;;9.82;7.18;;;;;;;11.02;48.19;101554.25;5063468;28;20123;-72
2022/10/13 02:55:27;;;;;;;12.20;6.43;;;;;;;11.02;48.80;101557.00;5065659;28;20044;-72
2022/10/13 02:57:58;;;;;;;11.15;6.80;;;;;;;11.00;48.79;101558.97;5048253;28;20072;-72
2022/10/13 03:00:26;;;;;;;9.50;6.18;;;;;;;11.01;48.73;101558.00;5068566;28;20048;-71
2022/10/13 03:02:54;;;;;;;11.35;7.25;;;;;;;10.99;48.45;101555.38;5069747;28;20040;-73
2022/10/13 03:05:22;;;;;;;9.85;6.38;;;;;;;11.00;48.31;101542.53;5072537;28;20135;-72
2022/10/13 03:07:51;;;;;;;11.20;7.75;;;;;;;11.02;48.88;101547.91;5069260;28;20421;-72
2022/10/13 03:10:19;;;;;;;10.57;6.78;;;;;;;10.98;48.49;101544.53;5066246;28;20134;-72
2022/10/13 03:12:49;;;;;;;9.57;6.50;;;;;;;10.98;48.83;101545.41;5066869;28;20443;-72
2022/10/13 03:15:17;;;;;;;9.45;6.47;;;;;;;10.98;48.78;101541.78;5067714;28;20056;-71
2022/10/13 03:17:46;;;;;;;10.88;6.65;;;;;;;10.96;49.06;101539.19;5070688;28;20036;-72
2022/10/13 03:20:14;;;;;;;12.30;7.40;;;;;;;10.96;49.00;101530.09;5069000;28;20091;-72
2022/10/13 03:22:42;;;;;;;11.48;7.18;;;;;;;10.95;48.93;101531.09;5060352;28;20047;-72
2022/10/13 03:25:17;;;;;;;12.43;7.13;;;;;;;10.94;48.69;101527.47;5068249;28;20519;-72
2022/10/13 03:27:45;;;;;;;10.65;7.13;;;;;;;10.93;49.13;101530.31;5069417;28;20044;-72
2022/10/13 03:30:13;;;;;;;11.55;7.00;;;;;;;10.93;49.19;101533.06;5069981;28;20049;-72
2022/10/13 03:32:41;;;;;;;11.20;6.72;;;;;;;10.92;48.76;101529.44;5076019;28;20540;-72
2022/10/13 03:35:09;;;;;;;10.68;7.03;;;;;;;10.93;49.10;101519.38;5060904;28;20082;-72
2022/10/13 03:37:37;;;;;;;11.93;7.20;;;;;;;10.91;49.29;101515.88;5069391;28;20110;-72
2022/10/13 03:40:06;;;;;;;10.75;7.00;;;;;;;10.91;48.88;101522.22;5067536;28;20428;-72
2022/10/13 03:42:37;;;;;;;10.73;7.15;;;;;;;10.94;49.28;101510.16;5067621;28;20037;-72
2022/10/13 03:45:05;;;;;;;10.35;6.80;;;;;;;10.89;48.76;101505.06;5071361;28;20040;-72
2022/10/13 03:47:35;;;;;;;11.30;7.25;;;;;;;10.90;48.90;101515.00;5069139;28;20040;-72
2022/10/13 03:50:05;;;;;;;11.38;7.20;;;;;;;10.90;48.94;101500.44;5062710;28;20520;-72
2022/10/13 03:52:33;;;;;;;9.93;6.13;;;;;;;10.88;48.79;101500.59;5068719;28;20036;-72
2022/10/13 03:55:01;;;;;;;9.82;7.10;;;;;;;10.88;49.37;101503.31;5068915;28;20036;-71
2022/10/13 03:57:29;;;;;;;11.70;6.78;;;;;;;10.89;48.95;101504.19;5068586;28;20562;-72
2022/10/13 03:59:58;;;;;;;12.15;6.53;;;;;;;10.89;49.52;101510.53;5066941;28;20094;-72
2022/10/13 04:02:28;;;;;;;13.27;7.30;;;;;;;10.87;49.17;101500.69;5063196;28;20052;-72
2022/10/13 04:04:58;;;;;;;11.02;6.65;;;;;;;10.87;49.19;101498.84;5050772;28;20064;-72
2022/10/13 04:07:25;;;;;;;11.20;7.05;;;;;;;10.88;49.40;101494.22;5066585;28;20064;-72
2022/10/13 04:09:53;;;;;;;10.52;6.32;;;;;;;10.89;49.36;101498.72;5065636;28;20098;-72
2022/10/13 04:12:21;;;;;;;10.27;6.32;;;;;;;10.88;49.32;101495.09;5069142;28;20044;-72
2022/10/13 04:14:49;;;;;;;12.02;6.38;;;;;;;10.89;48.99;101479.56;5060552;28;20037;-72
2022/10/13 04:17:18;;;;;;;11.52;6.70;;;;;;;10.90;49.15;101493.09;5069265;28;20033;-72
2022/10/13 04:19:46;;;;;;;9.10;5.93;;;;;;;10.89;49.50;101501.47;5070848;28;20098;-72
2022/10/13 04:22:14;;;;;;;9.48;6.85;;;;;;;10.88;49.26;101500.59;5042832;28;20051;-72
2022/10/13 04:24:47;;;;;;;11.85;6.93;;;;;;;10.88;49.02;101488.75;5062596;28;20029;-72
2022/10/13 04:27:17;;;;;;;9.50;6.30;;;;;;;10.89;49.16;101495.97;5066001;28;20745;-72
2022/10/13 04:29:46;;;;;;;9.27;6.32;;;;;;;10.89;49.63;101487.75;5068932;28;20036;-72
2022/10/13 04:32:13;;;;;;;10.13;6.30;;;;;;;10.91;49.31;101493.97;5052343;28;20106;-72
2022/10/13 04:34:43;;;;;;;10.70;6.43;;;;;;;10.92;49.20;101482.03;5072244;28;20040;-72
2022/10/13 04:37:11;;;;;;;9.05;6.43;;;;;;;10.92;49.50;101484.75;5064309;28;20048;-71
2022/10/13 04:39:39;;;;;;;9.60;6.43;;;;;;;10.92;49.50;101477.41;5067114;28;20032;-71
2022/10/13 04:42:06;;;;;;;10.82;6.55;;;;;;;10.92;49.77;101477.41;5064246;28;20090;-72
2022/10/13 04:44:37;;;;;;;10.07;7.05;;;;;;;10.93;49.77;101476.44;5067342;28;20369;-72
2022/10/13 04:47:06;;;;;;;9.55;6.68;;;;;;;10.94;49.60;101483.66;5049549;28;20097;-72
2022/10/13 04:49:34;;;;;;;12.27;7.00;;;;;;;10.96;50.02;101478.94;5050711;28;20105;-72
2022/10/13 04:52:03;;;;;;;11.90;6.88;;;;;;;10.98;49.44;101468.72;5064469;28;20093;-72
2022/10/13 04:54:31;;;;;;;11.75;6.55;;;;;;;10.97;49.19;101463.38;5066880;28;20468;-72
2022/10/13 04:56:59;;;;;;;10.63;6.82;;;;;;;10.98;49.80;101474.19;5067431;28;20536;-72
2022/10/13 04:59:27;;;;;;;11.77;6.72;;;;;;;10.99;49.74;101466.84;5067885;28;20052;-71
2022/10/13 05:01:55;;;;;;;10.05;6.15;;;;;;;11.01;49.59;101469.47;5068320;28;20057;-72
2022/10/13 05:04:23;;;;;;;9.73;6.78;;;;;;;11.02;49.23;101457.53;5049673;28;20056;-72
2022/10/13 05:06:50;;;;;;;10.48;6.72;;;;;;;11.03;49.35;101464.75;5066965;28;20102;-71
2022/10/13 05:09:41;;;;;;;9.95;6.18;;;;;;;11.04;49.87;101461.88;5067888;28;20037;-71
2022/10/13 05:12:12;;;;;;;10.18;6.68;;;;;;;11.03;49.33;101464.75;5051628;28;20523;-72
2022/10/13 05:14:40;;;;;;;10.10;6.68;;;;;;;11.05;49.27;101469.13;5065555;28;20386;-72
2022/10/13 05:17:08;;;;;;;9.48;6.13;;;;;;;11.07;49.29;101463.50;5063385;28;20048;-72
2022/10/13 05:19:36;;;;;;;11.60;6.35;;;;;;;11.07;49.19;101461.63;5067176;28;20049;-72
2022/10/13 05:22:04;;;;;;;8.82;6.00;;;;;;;11.09;49.52;101458.78;5065717;28;20509;-72
2022/10/13 05:24:36;;;;;;;10.15;6.53;;;;;;;11.09;49.40;101465.13;5067578;28;20074;-72
2022/10/13 05:27:08;;;;;;;10.73;6.30;;;;;;;11.11;49.82;101460.41;5067129;28;20044;-71
2022/10/13 05:29:36;;;;;;;10.40;6.63;;;;;;;11.10;49.65;101463.25;5067542;28;20852;-72
2022/10/13 05:32:05;;;;;;;8.88;6.00;;;;;;;11.13;49.57;101457.53;5066899;28;20552;-72
2022/10/13 05:34:33;;;;;;;10.40;6.20;;;;;;;11.14;49.31;101451.06;5048610;28;20488;-72
2022/10/13 05:37:01;;;;;;;9.10;5.75;;;;;;;11.15;49.59;101461.00;5061232;28;20047;-72
2022/10/13 05:39:31;;;;;;;8.38;5.60;;;;;;;11.16;49.49;101454.53;5069217;28;20041;-72
2022/10/13 05:41:59;;;;;;;9.63;6.47;;;;;;;11.17;49.20;101434.38;5062099;28;20131;-72
2022/10/13 05:44:29;;;;;;;9.98;5.50;;;;;;;11.19;49.55;101446.94;5066655;28;20105;-72
2022/10/13 05:46:57;;;;;;;11.05;5.57;;;;;;;11.19;49.14;101443.34;5066063;28;20040;-71
2022/10/13 05:49:25;;;;;;;9.48;6.22;;;;;;;11.20;49.09;101447.81;5067696;28;20044;-71
2022/10/13 05:51:55;;;;;;;9.95;6.82;;;;;;;11.20;49.20;101451.44;5066005;28;20127;-73
2022/10/13 05:54:29;;;;;;;11.05;6.38;;;;;;;11.21;49.71;101446.84;5068696;28;20385;-73
2022/10/13 05:57:02;;;;;;;9.27;5.65;;;;;;;11.22;49.73;101441.22;5060396;28;20046;-73
2022/10/13 05:59:36;;;;;;;12.45;6.57;;;;;;;11.23;49.62;101442.94;5042973;28;20048;-73
2022/10/13 06:02:07;;;;;;;9.82;6.43;;;;;;;11.22;49.57;101443.97;5069753;28;20055;-73
2022/10/13 06:04:40;;;;;;;10.35;6.10;;;;;;;11.22;49.58;101441.22;5047497;28;20536;-73
2022/10/13 06:07:09;;;;;;;10.45;6.70;;;;;;;11.21;49.01;101422.19;5068766;28;20509;-73
2022/10/13 06:09:38;;;;;;;12.25;6.63;;;;;;;11.22;49.01;101427.53;5065394;28;20072;-73
2022/10/13 06:12:07;;;;;;;10.73;6.35;;;;;;;11.21;49.03;101438.63;5063138;28;20068;-73
2022/10/13 06:14:37;;;;;;;10.38;6.57;;;;;;;11.22;48.98;101421.19;5063503;28;20090;-73
2022/10/13 06:17:07;;;;;;;11.70;6.65;;;;;;;11.20;49.42;101407.59;5066195;28;20047;-73
2022/10/13 06:19:35;;;;;;;9.23;5.90;;;;;;;11.19;49.45;101415.94;5076041;28;20493;-73
2022/10/13 06:22:07;;;;;;;8.82;5.63;;;;;;;11.19;49.16;101418.69;5065736;28;20060;-73
2022/10/13 06:24:35;;;;;;;10.65;6.70;;;;;;;11.19;48.87;101410.47;5065717;28;20101;-72
2022/10/13 06:27:03;;;;;;;9.85;5.45;;;;;;;11.18;49.24;101423.28;5050789;28;20536;-73
2022/10/13 06:29:32;;;;;;;9.82;5.90;;;;;;;11.18;49.50;101431.50;5063874;28;20047;-73
2022/10/13 06:32:01;;;;;;;9.13;5.80;;;;;;;11.19;49.48;101427.78;5045302;28;20516;-72
2022/10/13 06:34:29;;;;;;;11.07;7.05;;;;;;;11.18;49.19;101422.41;5068671;28;20281;-72
2022/10/13 06:36:57;;;;;;;9.18;6.22;;;;;;;11.18;49.18;101439.72;5051200;28;20071;-72
2022/10/13 06:39:25;;;;;;;11.88;6.13;;;;;;;11.18;49.28;101436.09;5070411;28;20109;-72
2022/10/13 06:41:54;;;;;;;9.75;6.25;;;;;;;11.18;48.98;101430.63;5069511;28;20037;-71
2022/10/13 06:44:30;;;;;;;10.18;6.15;;;;;;;11.19;49.18;101411.34;5057486;28;20414;-71
2022/10/13 06:47:02;;;;;;;9.30;6.22;;;;;;;11.19;49.36;101416.81;5068924;28;20040;-71
2022/10/13 06:49:30;;;;;;;10.75;6.57;;;;;;;11.19;49.26;101432.38;5069227;28;20392;-71
2022/10/13 06:51:58;;;;;;;8.73;6.07;;;;;;;11.20;49.35;101415.81;5050582;28;20036;-71
2022/10/13 06:54:26;;;;;;;9.00;6.07;;;;;;;11.20;49.58;101417.69;5068089;28;20028;-71
2022/10/13 06:56:54;;;;;;;10.10;6.32;;;;;;;11.21;49.16;101422.19;5067393;28;20489;-71
2022/10/13 06:59:22;;;;;;;8.50;5.75;;;;;;;11.21;49.60;101423.06;5069401;28;20052;-71
2022/10/13 07:01:50;;;;;;;12.23;6.32;;;;;;;11.23;49.36;101423.78;5068791;28;20570;-71
2022/10/13 07:04:22;;;;;;;11.20;6.53;;;;;;;11.24;49.64;101427.38;5069176;28;20121;-70
2022/10/13 07:06:53;;;;;;;11.38;6.95;;;;;;;11.22;49.64;101433.00;5068300;28;20072;-71
2022/10/13 07:09:21;;;;;;;9.02;5.90;;;;;;;11.25;49.29;101427.25;5053691;28;20055;-75
2022/10/13 07:11:49;;;;;;;9.18;6.20;;;;;;;11.25;49.48;101430.00;5064498;28;20040;-72
2022/10/13 07:14:17;;;;;;;10.48;6.10;;;;;;;11.27;49.33;101421.66;5061524;28;20621;-73
2022/10/13 07:16:44;;;;;;;11.82;6.68;;;;;;;11.28;49.50;101427.03;5048297;28;20040;-74
2022/10/13 07:19:12;;;;;;;10.43;6.10;;;;;;;11.30;49.59;101425.03;5066961;28;20098;-73
2022/10/13 07:21:42;;;;;;;12.55;6.43;;;;;;;11.34;49.40;101423.78;5036910;28;20531;-74
2022/10/13 07:24:11;;;;;;;9.95;6.03;;;;;;;11.38;49.69;101440.84;5069219;28;20505;-73
2022/10/13 07:26:39;;;;;;;9.63;6.05;;;;;;;11.39;49.86;101428.88;5068777;28;20135;-72
2022/10/13 07:29:07;;;;;;;8.57;5.57;;;;;;;11.42;49.70;101428.63;5050115;28;20052;-73
2022/10/13 07:31:35;;;;;;;9.45;6.03;;;;;;;11.45;49.56;101431.13;5068046;28;20052;-72
2022/10/13 07:34:03;;;;;;;10.52;6.03;;;;;;;11.49;49.61;101418.03;5069029;28;20382;-71
2022/10/13 07:36:32;;;;;;;11.70;6.60;;;;;;;11.52;49.69;101401.34;5050720;28;20127;-72
2022/10/13 07:39:02;;;;;;;11.93;6.90;;;;;;;11.57;49.74;101415.50;5068533;28;20044;-72
2022/10/13 07:41:31;;;;;;;11.60;6.85;;;;;;;11.59;49.07;101411.66;5049544;28;20044;-72
2022/10/13 07:43:59;;;;;;;9.13;6.18;;;;;;;11.62;49.09;101410.56;5068247;28;20074;-72
2022/10/13 07:46:27;;;;;;;8.80;5.60;;;;;;;11.66;48.95;101412.91;5066247;28;20037;-72
2022/10/13 07:48:55;;;;;;;8.48;5.70;;;;;;;11.70;49.19;101419.91;5069166;28;20041;-72
2022/10/13 07:51:23;;;;;;;10.30;6.35;;;;;;;11.72;49.06;101415.13;5069136;28;20059;-72
2022/10/13 07:53:51;;;;;;;9.65;6.18;;;;;;;11.77;49.38;101417.50;5064792;28;20051;-73
2022/10/13 07:56:20;;;;;;;10.95;6.82;;;;;;;11.80;49.11;101417.22;5053199;28;20045;-71
2022/10/13 07:58:48;;;;;;;8.50;6.18;;;;;;;11.85;49.31;101428.72;5070118;28;20448;-70
2022/10/13 08:01:17;;;;;;;10.10;5.68;;;;;;;11.92;49.64;101420.84;5068822;28;20047;-69
2022/10/13 08:03:45;;;;;;;11.25;6.10;;;;;;;11.98;49.30;101432.16;5049885;28;20063;-69
2022/10/13 08:06:18;;;;;;;9.00;5.78;;;;;;;12.05;49.66;101427.00;5068936;28;20719;-69
2022/10/13 08:08:47;;;;;;;10.70;5.90;;;;;;;12.11;49.67;101432.88;5067587;28;20048;-69
2022/10/13 08:11:17;;;;;;;9.07;5.65;;;;;;;12.19;49.57;101423.97;5067588;28;20515;-70
2022/10/13 08:13:51;;;;;;;9.55;6.05;;;;;;;12.31;49.83;101424.78;5068546;28;20044;-69
2022/10/13 08:16:22;;;;;;;9.60;6.22;;;;;;;12.38;49.29;101423.25;5068895;28;20045;-69
2022/10/13 08:18:50;;;;;;;8.82;5.88;;;;;;;12.48;49.55;101429.69;5069733;28;20079;-69
2022/10/13 08:21:21;;;;;;;9.05;5.95;;;;;;;12.58;49.10;101427.91;5068096;28;20082;-69
2022/10/13 08:24:11;;;;;;;10.88;6.38;;;;;;;12.68;48.92;101426.13;5068473;28;20044;-69
2022/10/13 08:26:40;;;;;;;10.15;6.18;;;;;;;12.77;48.77;101424.44;5067374;28;20036;-70
2022/10/13 08:29:10;;;;;;;8.90;5.72;;;;;;;12.88;48.87;101438.09;5069755;28;20404;-69
2022/10/13 08:31:54;;;;;;;8.15;5.50;;;;;;;12.94;48.64;101432.06;5068378;28;20540;-70
2022/10/13 08:34:22;;;;;;;8.38;5.63;;;;;;;13.01;48.17;101447.00;5068794;28;20119;-70
2022/10/13 08:36:52;;;;;;;9.35;5.65;;;;;;;13.08;48.18;101433.59;5068321;28;20051;-69
2022/10/13 08:39:24;;;;;;;9.85;5.68;;;;;;;13.11;47.98;101427.81;5057924;23;20139;31
2022/10/13 08:41:54;;;;;;;10.00;5.63;;;;;;;13.19;48.26;101437.13;5033646;28;20069;-79
2022/10/13 08:44:30;;;;;;;11.02;6.40;;;;;;;13.24;47.98;101414.72;5024231;28;20060;-79
2022/10/13 08:47:30;;;;;;;9.18;6.57;;;;;;;13.28;47.97;101415.31;5008136;28;20049;-80
2022/10/13 08:50:02;;;;;;;9.73;5.97;;;;;;;13.30;47.74;101416.03;5041352;28;20048;-79
2022/10/13 08:52:44;;;;;;;10.52;5.95;;;;;;;13.33;47.15;101422.13;5025100;28;20099;-80
2022/10/13 08:55:20;;;;;;;9.35;5.60;;;;;;;13.34;47.68;101420.25;5042089;28;20073;-80
2022/10/13 08:57:48;;;;;;;8.15;5.75;;;;;;;13.34;47.33;101426.63;5027368;28;20056;-79
2022/10/13 09:00:18;;;;;;;9.63;5.90;;;;;;;13.37;47.62;101420.81;5037661;28;20041;-80
2022/10/13 09:02:49;;;;;;;11.17;5.87;;;;;;;13.36;47.32;101412.75;5053747;28;20062;-80
2022/10/13 09:05:27;;;;;;;8.45;5.50;;;;;;;13.39;46.89;101415.19;5037474;28;20291;-80
2022/10/13 09:08:05;;;;;;;9.48;5.72;;;;;;;13.40;46.97;101414.19;5037545;28;20513;-80
2022/10/13 09:10:45;;;;;;;9.40;5.63;;;;;;;13.42;47.16;101414.94;5036572;28;20079;-80
2022/10/13 09:13:17;;;;;;;9.77;5.72;;;;;;;13.41;47.32;101410.44;5032989;28;20041;-80
2022/10/13 09:15:49;;;;;;;9.60;6.55;;;;;;;13.44;47.27;101408.28;5031595;28;20041;-80
2022/10/13 09:18:17;;;;;;;7.75;5.75;;;;;;;13.43;47.11;101413.91;5054434;28;20140;-80
2022/10/13 09:20:45;;;;;;;8.70;6.03;;;;;;;13.48;47.54;101423.47;5054119;28;20107;-80
2022/10/13 09:23:19;;;;;;;8.30;5.78;;;;;;;13.53;47.21;101417.59;5025062;28;20049;-80
2022/10/13 09:25:49;;;;;;;11.48;6.03;;;;;;;13.53;47.46;101412.91;5033762;28;20040;-80
2022/10/13 09:28:22;;;;;;;10.40;6.10;;;;;;;13.57;47.01;101402.56;5037519;28;20140;-80
2022/10/13 09:31:02;;;;;;;8.95;6.35;;;;;;;13.61;47.47;101406.78;5037045;28;20109;-80
2022/10/13 09:33:35;;;;;;;9.00;6.18;;;;;;;13.63;47.54;101397.34;5055527;28;20526;-80
2022/10/13 09:36:10;;;;;;;7.78;6.13;;;;;;;13.68;47.26;101405.19;5037211;28;20100;-80
2022/10/13 09:38:39;;;;;;;8.35;5.93;;;;;;;13.72;47.25;101403.03;5039277;28;20037;-82
2022/10/13 09:41:15;;;;;;;9.40;5.55;;;;;;;13.78;47.19;101410.69;5037729;28;20051;-82
2022/10/13 09:43:58;;;;;;;7.57;5.30;;;;;;;13.80;47.25;101401.31;5032878;28;20117;-82
2022/10/13 09:46:31;;;;;;;8.30;5.90;;;;;;;13.84;47.17;101402.78;5038165;28;20045;-82
2022/10/13 09:49:03;;;;;;;8.88;5.82;;;;;;;13.90;46.86;101398.56;5039923;28;20056;-82
2022/10/13 09:51:37;;;;;;;8.80;4.90;;;;;;;13.94;47.06;101394.53;5038849;28;20465;-81
2022/10/13 09:54:28;;;;;;;9.98;5.72;;;;;;;14.00;47.79;101388.44;5044678;28;20396;-82
2022/10/13 09:57:01;;;;;;;8.52;5.53;;;;;;;14.07;47.72;101392.34;5038434;28;20515;-82
2022/10/13 09:59:33;;;;;;;9.05;5.03;;;;;;;14.16;47.43;101388.75;5035088;28;20085;-81
2022/10/13 10:02:18;;;;;;;9.53;5.20;;;;;;;14.24;47.49;101382.50;5028916;28;20115;-82
2022/10/13 10:04:53;;;;;;;8.43;5.43;;;;;;;14.32;47.29;101372.50;5052940;28;20291;-82
2022/10/13 10:07:28;;;;;;;8.32;5.13;;;;;;;14.46;47.26;101370.28;5039280;28;20079;-80
2022/10/13 10:10:01;;;;;;;8.30;5.35;;;;;;;14.54;47.33;101365.81;5034627;28;20045;-80
2022/10/13 10:12:33;;;;;;;9.13;5.10;;;;;;;14.61;46.72;101361.47;5051312;28;20088;-80
2022/10/13 10:15:01;;;;;;;8.38;5.18;;;;;;;14.67;47.21;101357.25;5036425;28;20042;-80
2022/10/13 10:17:37;;;;;;;6.78;4.85;;;;;;;14.80;46.15;101368.81;5038949;28;20045;-80
2022/10/13 10:20:23;;;;;;;8.50;5.53;;;;;;;14.88;46.37;101368.94;5057789;28;20501;-79
2022/10/13 10:22:59;;;;;;;9.23;5.10;;;;;;;14.94;46.22;101356.44;5027722;28;20492;-79
2022/10/13 10:25:33;;;;;;;7.38;5.00;;;;;;;15.01;46.54;101358.41;5025503;28;20048;-81
2022/10/13 10:28:32;;;;;;;7.75;5.53;;;;;;;15.07;46.09;101351.47;5029788;28;20491;-80
2022/10/13 10:31:09;;;;;;;7.97;4.90;;;;;;;15.13;46.31;101350.84;5015493;28;20040;-80
2022/10/13 10:33:49;;;;;;;10.95;5.80;;;;;;;15.21;45.79;101355.59;5035425;28;20049;-80
2022/10/13 10:36:23;;;;;;;6.97;5.10;;;;;;;15.25;46.21;101346.00;5033899;28;20491;-80
2022/10/13 10:38:54;;;;;;;8.57;6.00;;;;;;;15.30;45.94;101339.00;5052227;28;20411;-80
2022/10/13 10:41:37;;;;;;;9.07;5.38;;;;;;;15.40;45.75;101353.66;5051371;28;20047;-81
2022/10/13 10:44:09;;;;;;;8.85;5.13;;;;;;;15.43;45.95;101341.41;5027100;28;20060;-80
2022/10/13 10:46:42;;;;;;;10.05;5.43;;;;;;;15.52;46.35;101346.00;5034999;28;20061;-79
2022/10/13 10:49:18;;;;;;;7.50;5.22;;;;;;;15.60;46.22;101346.09;5030443;28;20069;-81
2022/10/13 10:51:46;;;;;;;9.35;5.78;;;;;;;15.68;46.35;101334.28;5057038;28;20033;-80
2022/10/13 10:54:25;;;;;;;8.85;5.35;;;;;;;15.81;45.36;101340.31;5056420;28;20243;-80
2022/10/13 10:56:56;;;;;;;6.88;5.18;;;;;;;15.88;46.10;101328.47;5049760;28;20140;-80
2022/10/13 10:59:39;;;;;;;8.70;5.55;;;;;;;16.00;45.83;101328.25;5038151;28;20068;-80
2022/10/13 11:02:19;;;;;;;;;;;;;;;15.78;46.64;101330.44;5030070;28;20522;-80
2022/10/13 11:04:53;;;;;;;8.85;4.82;;;;;;;16.16;45.64;101317.34;5052021;28;19921;-81
2022/10/13 11:07:57;;;;;;;7.80;5.22;;;;;;;16.29;44.98;101317.81;5020124;28;20106;-80
2022/10/13 11:10:26;;;;;;;;;;;;;;;16.07;46.07;101321.94;5016356;28;20073;-80
2022/10/13 11:13:21;;;;;;;6.80;4.13;;;;;;;16.39;44.47;101313.06;5044401;28;19921;-80
2022/10/13 11:15:49;;;;;;;8.98;5.20;;;;;;;16.50;44.51;101315.53;5032656;28;20041;-81
2022/10/13 11:19:04;;;;;;;7.38;4.82;;;;;;;16.58;43.80;101317.50;5049898;28;20073;-80
2022/10/13 11:22:15;;;;;;;8.93;4.93;;;;;;;16.60;44.10;101318.22;5035455;28;20053;-80
2022/10/13 11:24:46;;;;;;;8.45;5.22;;;;;;;16.64;44.16;101316.88;5045119;28;20579;-80
2022/10/13 11:27:37;;;;;;;6.82;4.70;;;;;;;16.67;43.75;101316.53;5044254;28;20060;-80
2022/10/13 11:30:40;;;;;;;7.68;4.95;;;;;;;16.63;43.84;101316.00;5058872;28;20067;-80
2022/10/13 11:33:35;;;;;;;7.32;4.75;;;;;;;16.63;43.20;101310.47;5044095;28;20061;-82
2022/10/13 11:36:40;;;;;;;7.70;4.70;;;;;;;16.64;43.32;101301.16;5043214;28;20049;-83
2022/10/13 11:39:41;;;;;;;7.68;4.57;;;;;;;16.65;43.64;101304.78;5046363;28;20072;-82
2022/10/13 11:42:26;;;;;;;7.28;4.65;;;;;;;16.64;43.24;101301.16;5038575;28;20056;-82
2022/10/13 11:44:56;;;;;;;7.38;5.15;;;;;;;16.63;43.44;101298.53;5040524;28;20415;-81